createdAt,value
2018-10-12T00:00:13.975Z,0
2018-10-12T00:01:06.183Z,0
2018-10-12T00:01:58.677Z,0
2018-10-12T00:02:50.765Z,0
2018-10-12T00:03:43.055Z,0
2018-10-12T00:04:35.503Z,0
2018-10-12T00:05:28.820Z,0
2018-10-12T00:06:21.271Z,0
2018-10-12T00:07:13.363Z,0
2018-10-12T00:08:05.642Z,0
2018-10-12T00:08:57.926Z,0
2018-10-12T00:09:50.738Z,0
2018-10-12T00:10:42.938Z,0
2018-10-12T00:11:35.219Z,0
2018-10-12T00:12:27.452Z,0
2018-10-12T00:13:20.244Z,0
2018-10-12T00:14:12.237Z,0
2018-10-12T00:15:04.130Z,0
2018-10-12T00:15:56.530Z,0
2018-10-12T00:16:48.769Z,0
2018-10-12T00:17:41.810Z,0
2018-10-12T00:18:33.695Z,0
2018-10-12T00:19:25.912Z,0
2018-10-12T00:20:17.972Z,0
2018-10-12T00:21:11.620Z,0
2018-10-12T00:22:03.884Z,0
2018-10-12T00:22:55.904Z,0
2018-10-12T00:25:28.742Z,0
2018-10-12T00:26:21.612Z,0
2018-10-12T00:27:13.815Z,0
2018-10-12T00:28:06.505Z,0
2018-10-12T00:28:58.609Z,0
2018-10-12T00:29:50.769Z,0
2018-10-12T00:30:42.975Z,0
2018-10-12T00:31:36.417Z,0
2018-10-12T00:32:28.835Z,0
2018-10-12T00:33:21.283Z,0
2018-10-12T00:34:13.494Z,0
2018-10-12T00:35:05.798Z,0
2018-10-12T00:35:58.021Z,0
2018-10-12T00:36:50.236Z,0
2018-10-12T00:37:42.348Z,0
2018-10-12T00:38:35.038Z,0
2018-10-12T00:39:27.415Z,0
2018-10-12T00:40:19.613Z,0
2018-10-12T00:41:11.954Z,0
2018-10-12T00:42:04.082Z,0
2018-10-12T00:42:56.370Z,0
2018-10-12T00:43:48.906Z,0
2018-10-12T00:44:41.120Z,0
2018-10-12T00:45:33.381Z,0
2018-10-12T00:46:25.985Z,0
2018-10-12T00:47:18.294Z,0
2018-10-12T00:48:10.308Z,0
2018-10-12T00:49:02.458Z,0
2018-10-12T00:49:54.854Z,0
2018-10-12T00:50:46.954Z,0
2018-10-12T00:51:39.407Z,0
2018-10-12T00:52:29.587Z,0
2018-10-12T00:54:39.067Z,0
2018-10-12T00:55:31.588Z,0
2018-10-12T00:56:25.060Z,0
2018-10-12T00:57:17.762Z,0
2018-10-12T00:58:09.676Z,0
2018-10-12T00:59:02.158Z,0
2018-10-12T00:59:55.203Z,0
2018-10-12T01:00:47.357Z,0
2018-10-12T01:01:39.584Z,0
2018-10-12T01:02:32.363Z,0
2018-10-12T01:03:24.598Z,0
2018-10-12T01:04:16.719Z,0
2018-10-12T01:05:09.542Z,0
2018-10-12T01:06:01.497Z,0
2018-10-12T01:06:53.602Z,0
2018-10-12T01:07:46.320Z,0
2018-10-12T01:08:38.556Z,0
2018-10-12T01:09:31.196Z,0
2018-10-12T01:10:23.606Z,0
2018-10-12T01:11:15.999Z,0
2018-10-12T01:12:08.783Z,0
2018-10-12T01:13:01.156Z,0
2018-10-12T01:13:53.735Z,0
2018-10-12T01:14:46.166Z,0
2018-10-12T01:15:38.722Z,0
2018-10-12T01:16:31.313Z,0
2018-10-12T01:17:23.674Z,0
2018-10-12T01:18:16.417Z,0
2018-10-12T01:19:08.676Z,0
2018-10-12T01:20:00.949Z,0
2018-10-12T01:20:53.239Z,0
2018-10-12T01:21:45.919Z,0
2018-10-12T01:22:38.084Z,0
2018-10-12T01:23:30.203Z,0
2018-10-12T01:24:22.681Z,0
2018-10-12T01:25:15.157Z,0
2018-10-12T01:26:07.059Z,0
2018-10-12T01:27:00.242Z,0
2018-10-12T01:27:52.633Z,0
2018-10-12T01:28:45.213Z,0
2018-10-12T01:29:37.581Z,0
2018-10-12T01:30:29.382Z,0
2018-10-12T01:31:22.011Z,0
2018-10-12T01:32:14.600Z,0
2018-10-12T01:33:06.665Z,0
2018-10-12T01:33:56.608Z,0
2018-10-12T01:34:37.079Z,0
2018-10-12T01:35:17.259Z,0
2018-10-12T01:35:57.565Z,0
2018-10-12T01:36:37.936Z,0
2018-10-12T01:37:19.384Z,0
2018-10-12T01:37:59.885Z,0
2018-10-12T01:38:40.249Z,0
2018-10-12T01:39:22.351Z,0
2018-10-12T01:40:02.897Z,0
2018-10-12T01:40:45.313Z,0
2018-10-12T01:41:25.833Z,0
2018-10-12T01:42:06.312Z,0
2018-10-12T01:42:49.447Z,0
2018-10-12T01:43:30.317Z,0
2018-10-12T01:44:10.741Z,0
2018-10-12T01:44:51.127Z,0
2018-10-12T01:45:32.561Z,0
2018-10-12T01:46:14.491Z,0
2018-10-12T01:46:57.795Z,0
2018-10-12T01:47:38.240Z,0
2018-10-12T01:48:18.704Z,0
2018-10-12T01:48:59.043Z,0
2018-10-12T01:49:39.714Z,0
2018-10-12T01:50:20.996Z,0
2018-10-12T01:51:01.981Z,0
2018-10-12T01:53:03.259Z,0
2018-10-12T01:53:43.668Z,0
2018-10-12T01:54:25.014Z,0
2018-10-12T01:55:07.752Z,0
2018-10-12T01:55:48.950Z,0
2018-10-12T01:56:29.369Z,0
2018-10-12T01:57:09.739Z,0
2018-10-12T01:57:50.234Z,0
2018-10-12T01:58:31.234Z,0
2018-10-12T01:59:11.562Z,0
2018-10-12T01:59:52.547Z,0
2018-10-12T02:00:33.190Z,0
2018-10-12T02:01:14.301Z,0
2018-10-12T02:01:54.915Z,0
2018-10-12T02:02:35.610Z,0
2018-10-12T02:03:15.896Z,0
2018-10-12T02:03:56.366Z,0
2018-10-12T02:04:37.726Z,0
2018-10-12T02:05:18.151Z,0
2018-10-12T02:05:58.567Z,0
2018-10-12T02:06:39.605Z,0
2018-10-12T02:09:03.397Z,0
2018-10-12T02:09:55.711Z,0
2018-10-12T02:10:48.295Z,0
2018-10-12T02:11:40.521Z,0
2018-10-12T02:12:33.155Z,0
2018-10-12T02:13:25.353Z,0
2018-10-12T02:14:17.870Z,0
2018-10-12T02:15:10.085Z,0
2018-10-12T02:17:43.343Z,0
2018-10-12T02:18:36.380Z,0
2018-10-12T02:19:28.807Z,0
2018-10-12T02:20:22.202Z,0
2018-10-12T02:21:14.323Z,0
2018-10-12T02:22:07.092Z,0
2018-10-12T02:22:59.546Z,0
2018-10-12T02:23:51.726Z,0
2018-10-12T02:24:43.979Z,0
2018-10-12T02:25:36.321Z,0
2018-10-12T02:26:28.862Z,0
2018-10-12T02:27:20.938Z,0
2018-10-12T02:28:13.498Z,0
2018-10-12T02:29:05.456Z,0
2018-10-12T02:29:58.067Z,0
2018-10-12T02:30:50.404Z,0
2018-10-12T02:31:43.935Z,0
2018-10-12T02:32:36.553Z,0
2018-10-12T02:33:30.018Z,0
2018-10-12T02:34:23.111Z,0
2018-10-12T02:35:15.573Z,0
2018-10-12T02:36:07.661Z,0
2018-10-12T02:37:00.724Z,0
2018-10-12T02:37:54.414Z,0
2018-10-12T02:38:47.169Z,0
2018-10-12T02:39:40.339Z,0
2018-10-12T02:40:33.515Z,0
2018-10-12T02:41:25.841Z,0
2018-10-12T02:42:17.823Z,0
2018-10-12T02:43:09.889Z,0
2018-10-12T02:44:02.417Z,0
2018-10-12T02:44:55.498Z,0
2018-10-12T02:45:48.429Z,0
2018-10-12T02:46:40.773Z,0
2018-10-12T02:47:33.413Z,0
2018-10-12T02:48:26.178Z,0
2018-10-12T02:49:19.311Z,0
2018-10-12T02:50:12.196Z,0
2018-10-12T02:51:04.780Z,0
2018-10-12T02:51:48.583Z,0
2018-10-12T02:52:29.064Z,0
2018-10-12T02:53:09.498Z,0
2018-10-12T02:53:49.988Z,0
2018-10-12T02:54:30.408Z,0
2018-10-12T02:55:10.805Z,0
2018-10-12T02:55:51.177Z,0
2018-10-12T02:56:31.635Z,0
2018-10-12T02:57:12.126Z,0
2018-10-12T02:57:52.631Z,0
2018-10-12T02:58:33.078Z,0
2018-10-12T02:59:13.748Z,0
2018-10-12T02:59:53.875Z,0
2018-10-12T03:00:34.368Z,0
2018-10-12T03:01:14.765Z,0
2018-10-12T03:01:55.141Z,0
2018-10-12T03:02:35.634Z,0
2018-10-12T03:03:16.072Z,0
2018-10-12T03:03:56.485Z,0
2018-10-12T03:04:36.867Z,0
2018-10-12T03:05:17.251Z,0
2018-10-12T03:05:57.810Z,0
2018-10-12T03:06:38.055Z,0
2018-10-12T03:07:18.610Z,0
2018-10-12T03:07:58.945Z,0
2018-10-12T03:08:39.335Z,0
2018-10-12T03:09:20.067Z,0
2018-10-12T03:10:00.383Z,0
2018-10-12T03:10:40.805Z,0
2018-10-12T03:11:21.328Z,0
2018-10-12T03:12:02.447Z,0
2018-10-12T03:12:44.644Z,0
2018-10-12T03:13:25.090Z,0
2018-10-12T03:14:05.300Z,0
2018-10-12T03:14:45.709Z,0
2018-10-12T03:15:26.397Z,0
2018-10-12T03:16:06.780Z,0
2018-10-12T03:16:47.137Z,0
2018-10-12T03:17:27.542Z,0
2018-10-12T03:18:08.001Z,0
2018-10-12T03:18:48.524Z,0
2018-10-12T03:19:28.971Z,0
2018-10-12T03:20:09.392Z,0
2018-10-12T03:20:49.759Z,0
2018-10-12T03:21:32.207Z,0
2018-10-12T03:22:12.242Z,0
2018-10-12T03:22:52.661Z,0
2018-10-12T03:23:33.041Z,0
2018-10-12T03:24:13.496Z,0
2018-10-12T03:24:53.847Z,0
2018-10-12T03:25:34.271Z,0
2018-10-12T03:26:14.698Z,0
2018-10-12T03:26:55.086Z,0
2018-10-12T03:27:35.899Z,0
2018-10-12T03:28:17.331Z,0
2018-10-12T03:28:57.666Z,0
2018-10-12T03:29:44.145Z,0
2018-10-12T03:30:24.463Z,0
2018-10-12T03:31:04.881Z,0
2018-10-12T03:31:45.339Z,0
2018-10-12T03:32:25.739Z,0
2018-10-12T03:33:06.828Z,0
2018-10-12T03:33:47.261Z,0
2018-10-12T03:34:27.670Z,0
2018-10-12T03:35:08.104Z,0
2018-10-12T03:35:48.459Z,0
2018-10-12T03:36:28.932Z,0
2018-10-12T03:37:09.228Z,0
2018-10-12T03:37:49.686Z,0
2018-10-12T03:38:30.098Z,0
2018-10-12T03:39:10.450Z,0
2018-10-12T03:39:50.924Z,0
2018-10-12T03:40:31.242Z,0
2018-10-12T03:41:11.698Z,0
2018-10-12T03:41:52.066Z,0
2018-10-12T03:42:32.471Z,0
2018-10-12T03:43:12.875Z,0
2018-10-12T03:43:53.337Z,0
2018-10-12T03:44:33.695Z,0
2018-10-12T03:45:14.104Z,0
2018-10-12T03:45:54.521Z,0
2018-10-12T03:46:35.057Z,0
2018-10-12T03:47:15.311Z,0
2018-10-12T03:47:55.755Z,0
2018-10-12T03:48:36.102Z,0
2018-10-12T03:49:16.513Z,0
2018-10-12T03:49:57.674Z,0
2018-10-12T03:50:38.144Z,0
2018-10-12T03:51:18.487Z,0
2018-10-12T03:51:58.994Z,0
2018-10-12T03:52:39.304Z,0
2018-10-12T03:53:19.650Z,0
2018-10-12T03:54:00.070Z,0
2018-10-12T03:54:40.472Z,0
2018-10-12T03:55:20.869Z,0
2018-10-12T03:56:01.258Z,0
2018-10-12T03:56:41.723Z,0
2018-10-12T03:57:22.132Z,0
2018-10-12T03:58:02.452Z,0
2018-10-12T03:58:42.846Z,0
2018-10-12T03:59:23.292Z,0
2018-10-12T04:00:03.683Z,0
2018-10-12T04:00:44.142Z,0
2018-10-12T04:01:24.517Z,0
2018-10-12T04:02:04.869Z,0
2018-10-12T04:02:45.336Z,0
2018-10-12T04:03:25.703Z,0
2018-10-12T04:04:06.119Z,0
2018-10-12T04:04:46.524Z,0
2018-10-12T04:05:26.869Z,0
2018-10-12T04:06:07.280Z,0
2018-10-12T04:06:47.693Z,0
2018-10-12T04:07:28.056Z,0
2018-10-12T04:08:08.516Z,0
2018-10-12T04:08:48.924Z,0
2018-10-12T04:09:29.306Z,0
2018-10-12T04:10:09.720Z,0
2018-10-12T04:10:50.190Z,0
2018-10-12T04:11:30.475Z,0
2018-10-12T04:12:11.017Z,0
2018-10-12T04:12:51.336Z,0
2018-10-12T04:13:31.805Z,0
2018-10-12T04:14:12.121Z,0
2018-10-12T04:14:52.553Z,0
2018-10-12T04:15:32.990Z,0
2018-10-12T04:16:13.381Z,0
2018-10-12T04:16:53.767Z,0
2018-10-12T04:17:34.174Z,0
2018-10-12T04:18:14.559Z,0
2018-10-12T04:18:54.992Z,0
2018-10-12T04:19:35.326Z,0
2018-10-12T04:20:15.757Z,0
2018-10-12T04:20:56.234Z,0
2018-10-12T04:21:36.618Z,0
2018-10-12T04:22:16.974Z,0
2018-10-12T04:22:57.433Z,0
2018-10-12T04:23:37.789Z,0
2018-10-12T04:24:18.177Z,0
2018-10-12T04:24:58.602Z,0
2018-10-12T04:25:38.999Z,0
2018-10-12T04:26:19.494Z,0
2018-10-12T04:26:59.889Z,0
2018-10-12T04:27:40.337Z,0
2018-10-12T05:09:21.886Z,0
2018-10-12T05:10:14.736Z,0
2018-10-12T05:11:07.671Z,0
2018-10-12T05:12:00.596Z,0
2018-10-12T05:12:53.108Z,0
2018-10-12T05:13:45.073Z,0
2018-10-12T05:14:37.467Z,0
2018-10-12T05:15:29.929Z,0
2018-10-12T05:16:22.285Z,0
2018-10-12T05:19:21.841Z,0
2018-10-12T05:20:02.129Z,0
2018-10-12T05:20:42.776Z,4
2018-10-12T05:21:23.692Z,4
2018-10-12T05:22:04.169Z,0
2018-10-12T05:22:44.481Z,0
2018-10-12T05:23:24.869Z,4
2018-10-12T05:24:05.850Z,4
2018-10-12T05:24:47.132Z,0
2018-10-12T05:25:28.376Z,4
2018-10-12T05:26:09.521Z,4
2018-10-12T05:26:49.983Z,4
2018-10-12T05:27:30.457Z,8
2018-10-12T05:28:11.109Z,8
2018-10-12T05:28:51.567Z,8
2018-10-12T05:29:33.940Z,4
2018-10-12T05:30:15.128Z,8
2018-10-12T05:30:56.703Z,12
2018-10-12T05:31:39.916Z,8
2018-10-12T05:32:20.286Z,12
2018-10-12T05:33:00.702Z,12
2018-10-12T05:33:43.449Z,16
2018-10-12T05:34:26.782Z,16
2018-10-12T05:35:08.274Z,20
2018-10-12T05:35:50.499Z,20
2018-10-12T05:36:32.112Z,20
2018-10-12T05:37:12.634Z,24
2018-10-12T05:37:55.489Z,28
2018-10-12T05:38:37.148Z,36
2018-10-12T05:39:18.706Z,36
2018-10-12T05:39:59.168Z,44
2018-10-12T05:40:42.158Z,48
2018-10-12T05:41:22.935Z,48
2018-10-12T05:42:04.508Z,56
2018-10-12T05:42:45.219Z,60
2018-10-12T05:43:26.710Z,64
2018-10-12T05:44:06.915Z,68
2018-10-12T05:44:47.730Z,72
2018-10-12T05:45:28.258Z,76
2018-10-12T05:46:08.705Z,84
2018-10-12T05:46:49.186Z,88
2018-10-12T05:47:29.698Z,96
2018-10-12T05:48:12.043Z,104
2018-10-12T05:48:52.776Z,112
2018-10-12T05:49:33.868Z,120
2018-10-12T05:50:15.243Z,132
2018-10-12T05:50:55.654Z,140
2018-10-12T05:51:36.126Z,148
2018-10-12T05:52:22.111Z,164
2018-10-12T05:53:03.279Z,176
2018-10-12T05:53:43.637Z,184
2018-10-12T05:54:24.282Z,196
2018-10-12T05:55:04.777Z,212
2018-10-12T05:55:47.105Z,224
2018-10-12T05:56:28.010Z,240
2018-10-12T05:57:08.389Z,256
2018-10-12T05:57:48.979Z,268
2018-10-12T05:58:29.434Z,288
2018-10-12T05:59:10.235Z,308
2018-10-12T05:59:50.840Z,340
2018-10-12T06:00:31.766Z,352
2018-10-12T06:01:12.292Z,368
2018-10-12T06:01:53.610Z,376
2018-10-12T06:02:33.504Z,392
2018-10-12T06:03:14.252Z,420
2018-10-12T06:03:55.368Z,452
2018-10-12T06:04:36.185Z,492
2018-10-12T06:05:18.206Z,584
2018-10-12T06:06:00.192Z,688
2018-10-12T06:06:41.298Z,776
2018-10-12T06:07:26.604Z,772
2018-10-12T06:08:12.410Z,820
2018-10-12T06:08:53.809Z,988
2018-10-12T06:09:34.778Z,1244
2018-10-12T06:11:35.053Z,1648
2018-10-12T06:12:15.028Z,1760
2018-10-12T06:12:55.488Z,1584
2018-10-12T06:13:35.900Z,1116
2018-10-12T06:15:46.936Z,1648
2018-10-12T06:16:40.701Z,2084
2018-10-12T06:17:44.567Z,2488
2018-10-12T06:19:40.742Z,2808
2018-10-12T06:20:21.518Z,3004
2018-10-12T06:21:02.089Z,3160
2018-10-12T06:21:42.863Z,3288
2018-10-12T06:22:23.270Z,3268
2018-10-12T06:23:04.273Z,2572
2018-10-12T06:23:44.937Z,1952
2018-10-12T06:24:26.853Z,1160
2018-10-12T06:25:06.054Z,1172
2018-10-12T06:25:46.794Z,936
2018-10-12T06:26:27.184Z,932
2018-10-12T06:27:08.234Z,928
2018-10-12T06:27:48.559Z,936
2018-10-12T06:28:29.124Z,932
2018-10-12T06:29:09.587Z,928
2018-10-12T06:29:50.245Z,932
2018-10-12T06:30:30.778Z,940
2018-10-12T06:31:11.197Z,944
2018-10-12T06:31:51.606Z,952
2018-10-12T06:32:32.383Z,968
2018-10-12T06:33:14.170Z,980
2018-10-12T06:33:56.796Z,1004
2018-10-12T06:34:37.086Z,1028
2018-10-12T06:35:17.905Z,1076
2018-10-12T06:35:58.466Z,1140
2018-10-12T06:36:39.367Z,1208
2018-10-12T06:37:19.782Z,1248
2018-10-12T06:38:01.299Z,1296
2018-10-12T06:38:42.414Z,1380
2018-10-12T06:39:22.843Z,1976
2018-10-12T06:40:03.371Z,3740
2018-10-12T06:40:44.303Z,4160
2018-10-12T06:41:24.969Z,4260
2018-10-12T06:42:05.423Z,3104
2018-10-12T06:42:46.869Z,3492
2018-10-12T06:43:27.819Z,4872
2018-10-12T06:44:09.030Z,5168
2018-10-12T06:44:52.719Z,3036
2018-10-12T06:45:34.424Z,5356
2018-10-12T06:46:14.466Z,4952
2018-10-12T06:46:56.711Z,3208
2018-10-12T06:47:38.736Z,3248
2018-10-12T06:48:19.635Z,4928
2018-10-12T06:49:00.325Z,4928
2018-10-12T06:49:41.812Z,4632
2018-10-12T06:50:23.299Z,4124
2018-10-12T06:51:05.306Z,3668
2018-10-12T06:51:45.803Z,3732
2018-10-12T06:52:27.048Z,3840
2018-10-12T06:53:07.499Z,3812
2018-10-12T06:53:49.090Z,3660
2018-10-12T06:54:30.315Z,3568
2018-10-12T06:55:10.502Z,3404
2018-10-12T06:55:51.252Z,3112
2018-10-12T06:56:32.113Z,3092
2018-10-12T06:57:13.536Z,3096
2018-10-12T06:57:54.026Z,3108
2018-10-12T06:58:36.532Z,3296
2018-10-12T06:59:17.574Z,3504
2018-10-12T06:59:58.131Z,3468
2018-10-12T07:00:38.623Z,3212
2018-10-12T07:01:19.785Z,3236
2018-10-12T07:02:00.111Z,3472
2018-10-12T07:02:40.708Z,3520
2018-10-12T07:03:21.676Z,3516
2018-10-12T07:05:35.051Z,3764
2018-10-12T07:06:15.255Z,3904
2018-10-12T07:06:55.808Z,3880
2018-10-12T07:07:36.400Z,3760
2018-10-12T07:08:16.835Z,3632
2018-10-12T07:09:00.036Z,3428
2018-10-12T07:09:41.516Z,3416
2018-10-12T07:10:21.867Z,3552
2018-10-12T07:11:02.413Z,3444
2018-10-12T07:11:42.982Z,3600
2018-10-12T07:12:23.526Z,3760
2018-10-12T07:13:04.022Z,3656
2018-10-12T07:13:44.503Z,3464
2018-10-12T07:14:24.864Z,3260
2018-10-12T07:15:05.309Z,3268
2018-10-12T07:15:45.751Z,3244
2018-10-12T07:16:27.243Z,3052
2018-10-12T07:17:07.669Z,1540
2018-10-12T07:17:49.353Z,1644
2018-10-12T07:18:30.104Z,3284
2018-10-12T07:19:11.785Z,3744
2018-10-12T07:19:52.762Z,2568
2018-10-12T07:20:32.860Z,1488
2018-10-12T07:21:13.594Z,1560
2018-10-12T07:21:54.304Z,1992
2018-10-12T07:22:34.797Z,3044
2018-10-12T07:30:48.335Z,2912
2018-10-12T07:31:30.369Z,2908
2018-10-12T07:32:10.897Z,2888
2018-10-12T07:32:52.163Z,2920
2018-10-12T07:33:32.724Z,2812
2018-10-12T07:34:13.497Z,2788
2018-10-12T07:34:54.482Z,2780
2018-10-12T07:35:35.543Z,2648
2018-10-12T07:36:15.786Z,2368
2018-10-12T07:36:57.107Z,2112
2018-10-12T07:37:37.531Z,2040
2018-10-12T07:38:17.896Z,1992
2018-10-12T07:38:58.268Z,1952
2018-10-12T07:39:38.892Z,1940
2018-10-12T07:40:21.857Z,1900
2018-10-12T07:41:02.263Z,1892
2018-10-12T07:41:44.628Z,1436
2018-10-12T07:42:27.125Z,1424
2018-10-12T07:43:06.870Z,1628
2018-10-12T07:43:47.978Z,1632
2018-10-12T07:44:29.071Z,1644
2018-10-12T07:45:14.620Z,1648
2018-10-12T07:45:55.680Z,1928
2018-10-12T07:46:35.716Z,1860
2018-10-12T07:47:16.526Z,1932
2018-10-12T07:47:56.896Z,2184
2018-10-12T07:48:37.387Z,2232
2018-10-12T07:49:19.661Z,2152
2018-10-12T07:50:00.317Z,1984
2018-10-12T07:50:40.823Z,1924
2018-10-12T07:51:21.330Z,1800
2018-10-12T07:52:01.867Z,1680
2018-10-12T07:52:42.316Z,1636
2018-10-12T07:53:23.824Z,1688
2018-10-12T07:54:04.211Z,1780
2018-10-12T07:54:45.016Z,1680
2018-10-12T07:55:25.967Z,1612
2018-10-12T07:56:06.486Z,1612
2018-10-12T07:56:46.877Z,1588
2018-10-12T07:57:28.659Z,1452
2018-10-12T07:58:09.274Z,1408
2018-10-12T07:58:49.616Z,1392
2018-10-12T07:59:30.132Z,1420
2018-10-12T08:00:10.645Z,1328
2018-10-12T08:00:50.915Z,1192
2018-10-12T08:01:31.352Z,1172
2018-10-12T08:02:11.812Z,1256
2018-10-12T08:02:52.350Z,1360
2018-10-12T08:03:32.833Z,1412
2018-10-12T08:06:06.701Z,1316
2018-10-12T08:07:03.773Z,1284
2018-10-12T08:08:14.579Z,1220
2018-10-12T08:09:09.577Z,1252
2018-10-12T08:10:15.514Z,1132
2018-10-12T08:11:16.796Z,1024
2018-10-12T08:12:19.380Z,1072
2018-10-12T08:13:14.828Z,1168
2018-10-12T08:14:11.653Z,1220
2018-10-12T08:15:10.724Z,1296
2018-10-12T08:16:05.158Z,1424
2018-10-12T08:17:01.372Z,1448
2018-10-12T08:17:58.408Z,1476
2018-10-12T08:19:07.045Z,1600
2018-10-12T08:20:04.983Z,1700
2018-10-12T08:21:12.409Z,1796
2018-10-12T08:27:09.238Z,1264
2018-10-12T08:28:03.476Z,1292
2018-10-12T08:28:58.914Z,1368
2018-10-12T08:33:52.994Z,1556
2018-10-12T08:34:50.821Z,1620
2018-10-12T08:35:49.868Z,1632
2018-10-12T08:36:44.583Z,1612
2018-10-12T08:37:38.195Z,1516
2018-10-12T08:38:31.992Z,1516
2018-10-12T08:39:26.262Z,1480
2018-10-12T08:40:27.557Z,1444
2018-10-12T08:42:52.456Z,1300
2018-10-12T08:43:32.837Z,1300
2018-10-12T08:44:13.441Z,1308
2018-10-12T08:44:53.917Z,1476
2018-10-12T08:45:35.202Z,1272
2018-10-12T08:46:16.706Z,1344
2018-10-12T08:46:57.506Z,1452
2018-10-12T08:47:37.972Z,1508
2018-10-12T08:48:18.750Z,1496
2018-10-12T08:49:00.024Z,1392
2018-10-12T08:49:41.950Z,1336
2018-10-12T08:50:22.388Z,1316
2018-10-12T08:51:02.757Z,1348
2018-10-12T08:51:48.539Z,1376
2018-10-12T08:52:32.165Z,1380
2018-10-12T08:53:14.779Z,1356
2018-10-12T08:53:55.390Z,1300
2018-10-12T08:54:35.771Z,1292
2018-10-12T08:55:16.333Z,1280
2018-10-12T08:55:59.831Z,1324
2018-10-12T08:56:40.264Z,1380
2018-10-12T08:57:21.012Z,1464
2018-10-12T08:58:02.823Z,1644
2018-10-12T08:58:42.899Z,1584
2018-10-12T08:59:24.316Z,1572
2018-10-12T09:00:04.891Z,1544
2018-10-12T09:00:45.347Z,1520
2018-10-12T09:01:26.353Z,1492
2018-10-12T09:02:07.897Z,1488
2018-10-12T09:02:48.613Z,1480
2018-10-12T09:03:28.979Z,1472
2018-10-12T09:06:50.333Z,1488
2018-10-12T09:07:30.461Z,1344
2018-10-12T09:08:10.862Z,1336
2018-10-12T09:08:51.285Z,1352
2018-10-12T09:09:31.740Z,1356
2018-10-12T09:10:12.154Z,1332
2018-10-12T09:10:52.818Z,1280
2018-10-12T09:11:33.230Z,1264
2018-10-12T09:12:13.627Z,1272
2018-10-12T09:12:54.025Z,1312
2018-10-12T09:13:34.406Z,1368
2018-10-12T09:14:14.899Z,1444
2018-10-12T09:14:55.448Z,1516
2018-10-12T09:15:35.970Z,1624
2018-10-12T09:16:16.416Z,2068
2018-10-12T09:16:56.804Z,1608
2018-10-12T09:17:37.410Z,1764
2018-10-12T09:18:17.868Z,1524
2018-10-12T09:18:58.318Z,1484
2018-10-12T09:19:38.786Z,1476
2018-10-12T09:20:19.238Z,1448
2018-10-12T09:20:59.593Z,1408
2018-10-12T09:21:40.375Z,1688
2018-10-12T09:22:20.988Z,1592
2018-10-12T09:23:01.345Z,1400
2018-10-12T09:23:41.750Z,1848
2018-10-12T09:24:22.199Z,1944
2018-10-12T09:25:02.782Z,1956
2018-10-12T09:25:43.253Z,1944
2018-10-12T09:26:24.282Z,1952
2018-10-12T09:27:05.396Z,1920
2018-10-12T09:27:45.921Z,1896
2018-10-12T09:28:26.254Z,1880
2018-10-12T09:29:07.704Z,1852
2018-10-12T09:29:48.050Z,1828
2018-10-12T09:30:30.065Z,1804
2018-10-12T09:31:11.314Z,1808
2018-10-12T09:31:52.363Z,1812
2018-10-12T09:36:29.522Z,1804
2018-10-12T09:39:08.696Z,1752
2018-10-12T09:41:40.534Z,1720
2018-10-12T09:42:20.423Z,1712
2018-10-12T09:43:01.804Z,1700
2018-10-12T09:43:42.648Z,1680
2018-10-12T09:44:23.146Z,1672
2018-10-12T09:45:03.571Z,1664
2018-10-12T09:45:44.751Z,1648
2018-10-12T09:46:25.384Z,1636
2018-10-12T09:47:05.746Z,1628
2018-10-12T09:47:48.564Z,1616
2018-10-12T09:48:28.814Z,1604
2018-10-12T09:49:12.595Z,1600
2018-10-12T09:49:54.327Z,1588
2018-10-12T09:50:36.578Z,1580
2018-10-12T09:51:17.602Z,1572
2018-10-12T09:51:57.576Z,1564
2018-10-12T09:52:37.860Z,1560
2018-10-12T09:53:19.987Z,1556
2018-10-12T09:54:02.599Z,1548
2018-10-12T09:54:44.173Z,1548
2018-10-12T09:55:24.325Z,1548
2018-10-12T09:56:06.912Z,1544
2018-10-12T09:56:46.846Z,1544
2018-10-12T09:57:27.535Z,1544
2018-10-12T09:58:09.711Z,1540
2018-10-12T09:58:50.070Z,1540
2018-10-12T09:59:31.594Z,1532
2018-10-12T10:00:11.982Z,1532
2018-10-12T10:01:01.326Z,1540
2018-10-12T10:01:42.195Z,1548
2018-10-12T10:02:22.411Z,1560
2018-10-12T10:03:03.179Z,1212
2018-10-12T10:03:44.720Z,1544
2018-10-12T10:04:25.462Z,1156
2018-10-12T10:05:06.388Z,1068
2018-10-12T10:05:47.115Z,1272
2018-10-12T10:06:27.845Z,1192
2018-10-12T10:07:08.453Z,1372
2018-10-12T10:07:50.764Z,1160
2018-10-12T10:08:32.628Z,1156
2018-10-12T10:09:13.975Z,1468
2018-10-12T10:09:54.169Z,1420
2018-10-12T10:10:36.125Z,1504
2018-10-12T10:11:17.247Z,1344
2018-10-12T10:11:58.411Z,1024
2018-10-12T10:12:41.511Z,1044
2018-10-12T10:13:23.289Z,1432
2018-10-12T10:14:03.936Z,1428
2018-10-12T10:14:44.390Z,1436
2018-10-12T10:15:26.527Z,1416
2018-10-12T10:16:07.482Z,1456
2018-10-12T10:16:49.087Z,1456
2018-10-12T10:17:30.634Z,1408
2018-10-12T10:18:12.143Z,1412
2018-10-12T10:18:52.807Z,1444
2018-10-12T10:19:34.106Z,1424
2018-10-12T10:20:14.381Z,1380
2018-10-12T10:20:56.228Z,1352
2018-10-12T10:21:37.016Z,1320
2018-10-12T10:22:19.127Z,1380
2018-10-12T10:22:59.310Z,1352
2018-10-12T10:23:40.930Z,1308
2018-10-12T10:24:21.358Z,1280
2018-10-12T10:25:01.868Z,1284
2018-10-12T10:25:43.282Z,1268
2018-10-12T10:26:24.611Z,1224
2018-10-12T10:27:06.117Z,1224
2018-10-12T10:27:46.758Z,1220
2018-10-12T10:28:28.162Z,1220
2018-10-12T10:29:09.435Z,1280
2018-10-12T11:09:26.382Z,1308
2018-10-12T11:10:24.291Z,1300
2018-10-12T11:11:21.397Z,1296
2018-10-12T11:12:16.562Z,1296
2018-10-12T11:13:09.407Z,1276
2018-10-12T11:14:02.745Z,1252
2018-10-12T11:17:17.225Z,1180
2018-10-12T11:20:39.293Z,1176
2018-10-12T11:21:19.683Z,1164
2018-10-12T11:22:00.761Z,1172
2018-10-12T11:22:41.172Z,1176
2018-10-12T11:23:21.589Z,1176
2018-10-12T11:24:02.037Z,1200
2018-10-12T11:24:42.623Z,1216
2018-10-12T11:25:22.894Z,1228
2018-10-12T11:26:03.417Z,1212
2018-10-12T11:26:43.859Z,1168
2018-10-12T11:27:24.242Z,1208
2018-10-12T11:28:06.387Z,1228
2018-10-12T11:28:46.773Z,1236
2018-10-12T11:29:27.164Z,1260
2018-10-12T11:30:07.593Z,1272
2018-10-12T11:30:48.257Z,1272
2018-10-12T11:31:28.820Z,1288
2018-10-12T11:32:09.467Z,1304
2018-10-12T11:32:52.238Z,1312
2018-10-12T11:33:32.023Z,1312
2018-10-12T11:34:12.477Z,1308
2018-10-12T11:34:52.873Z,1292
2018-10-12T11:35:33.355Z,1280
2018-10-12T11:36:13.732Z,1272
2018-10-12T11:36:54.914Z,1260
2018-10-12T11:37:35.254Z,1256
2018-10-12T11:38:15.683Z,1220
2018-10-12T11:38:56.076Z,1276
2018-10-12T11:39:37.483Z,1296
2018-10-12T11:40:17.812Z,1296
2018-10-12T11:40:58.198Z,1288
2018-10-12T11:41:38.798Z,1284
2018-10-12T11:42:19.968Z,1292
2018-10-12T11:43:00.414Z,1300
2018-10-12T11:43:41.856Z,1304
2018-10-12T11:44:22.293Z,1304
2018-10-12T11:45:02.996Z,1296
2018-10-12T11:45:43.174Z,1300
2018-10-12T11:46:23.761Z,1292
2018-10-12T11:47:04.169Z,1260
2018-10-12T11:47:44.599Z,1276
2018-10-12T11:48:25.470Z,1268
2018-10-12T11:49:05.761Z,1260
2018-10-12T11:49:46.306Z,1264
2018-10-12T11:50:26.923Z,1252
2018-10-12T11:51:07.380Z,1252
2018-10-12T11:51:47.872Z,1288
2018-10-12T11:52:28.191Z,1292
2018-10-12T11:53:08.615Z,1300
2018-10-12T11:53:49.296Z,1300
2018-10-12T11:54:29.658Z,1300
2018-10-12T11:55:10.073Z,1264
2018-10-12T11:55:50.669Z,1244
2018-10-12T11:56:31.618Z,1248
2018-10-12T11:57:12.316Z,1240
2018-10-12T11:57:53.135Z,1208
2018-10-12T11:58:33.621Z,1216
2018-10-12T12:00:46.323Z,1212
2018-10-12T12:01:27.017Z,1192
2018-10-12T12:02:07.552Z,1184
2018-10-12T12:02:47.809Z,1184
2018-10-12T12:03:28.462Z,1156
2018-10-12T12:04:08.856Z,1168
2018-10-12T12:04:49.328Z,1156
2018-10-12T12:05:29.684Z,1156
2018-10-12T12:06:10.129Z,1144
2018-10-12T12:06:50.610Z,1112
2018-10-12T12:07:31.160Z,1100
2018-10-12T12:08:11.495Z,1084
2018-10-12T12:08:51.905Z,1076
2018-10-12T12:09:32.329Z,1092
2018-10-12T12:10:12.715Z,1108
2018-10-12T12:10:53.138Z,1152
2018-10-12T12:11:33.703Z,1196
2018-10-12T12:12:14.388Z,1196
2018-10-12T12:12:54.535Z,1188
2018-10-12T12:13:34.980Z,1228
2018-10-12T12:14:15.553Z,1256
2018-10-12T12:14:56.002Z,1308
2018-10-12T12:15:36.425Z,1288
2018-10-12T12:16:16.842Z,1300
2018-10-12T12:16:57.418Z,1264
2018-10-12T12:17:37.938Z,1292
2018-10-12T12:18:18.339Z,1376
2018-10-12T12:18:58.849Z,1376
2018-10-12T12:19:39.806Z,1396
2018-10-12T12:20:21.146Z,1364
2018-10-12T12:22:55.197Z,1396
2018-10-12T12:26:47.179Z,1448
2018-10-12T12:27:27.918Z,1452
2018-10-12T12:28:08.338Z,1472
2018-10-12T12:28:48.973Z,1492
2018-10-12T12:29:29.399Z,1444